Time;durP1;ratioP1;P1;durP2;ratioP2;P2;SDS_P1;SDS_P2;PMS_P1;PMS_P2;Temp;Humidity;BMP_temperature;BMP_pressure;BME280_temperature;BME280_humidity;BME280_pressure;Samples;Min_cycle;Max_cycle;Signal;HPM_P1;HPM_P2
2021/09/09 00:00:31;;;;;;;14.30;13.00;;;18.20;99.90;;;;;;5130081;27;20876;-40
2021/09/09 00:02:56;;;;;;;13.93;12.53;;;18.20;99.90;;;;;;5118443;27;20217;-39
2021/09/09 00:05:22;;;;;;;13.47;12.07;;;18.10;99.90;;;;;;5126069;27;20239;-38
2021/09/09 00:07:48;;;;;;;13.73;12.43;;;18.10;99.90;;;;;;5128355;27;20308;-40
2021/09/09 00:10:14;;;;;;;13.70;12.47;;;18.20;99.90;;;;;;5130099;27;20278;-38
2021/09/09 00:12:40;;;;;;;13.10;11.80;;;18.20;99.90;;;;;;5129054;27;20184;-38
2021/09/09 00:15:07;;;;;;;13.90;12.50;;;18.20;99.90;;;;;;5119678;27;20820;-38
2021/09/09 00:17:32;;;;;;;13.60;12.30;;;18.20;99.90;;;;;;5108854;27;20432;-38
2021/09/09 00:19:58;;;;;;;12.93;11.60;;;18.20;99.90;;;;;;5124528;27;20913;-38
2021/09/09 00:22:24;;;;;;;13.63;12.07;;;18.20;99.90;;;;;;5128870;27;20432;-38
2021/09/09 00:24:50;;;;;;;13.97;12.57;;;18.10;99.90;;;;;;5129888;27;20202;-39
2021/09/09 00:27:16;;;;;;;13.53;12.23;;;18.20;99.90;;;;;;5128957;27;20449;-38
2021/09/09 00:29:41;;;;;;;14.07;12.73;;;18.20;99.90;;;;;;5129305;27;20444;-37
2021/09/09 00:32:07;;;;;;;14.93;12.43;;;18.10;99.90;;;;;;5125728;27;20179;-40
2021/09/09 00:34:33;;;;;;;13.37;12.07;;;18.10;99.90;;;;;;5123630;27;20191;-40
2021/09/09 00:36:59;;;;;;;13.50;12.30;;;18.10;99.90;;;;;;5128679;27;20444;-40
2021/09/09 00:39:24;;;;;;;13.73;12.23;;;18.10;99.90;;;;;;5129373;27;20191;-38
2021/09/09 00:41:52;;;;;;;14.20;12.70;;;18.00;99.90;;;;;;5128528;27;20195;-38
2021/09/09 00:44:24;;;;;;;13.30;12.00;;;18.00;99.90;;;;;;5129149;27;20190;-38
2021/09/09 00:47:01;;;;;;;13.57;12.17;;;18.00;99.90;;;;;;5128842;27;20454;-41
2021/09/09 00:49:27;;;;;;;13.30;12.00;;;18.00;99.90;;;;;;5117934;27;20463;-37
2021/09/09 00:51:53;;;;;;;13.43;12.23;;;18.10;99.90;;;;;;5128462;27;20413;-38
2021/09/09 00:54:19;;;;;;;15.60;12.80;;;18.00;99.90;;;;;;5129217;27;20248;-38
2021/09/09 00:56:45;;;;;;;14.07;12.70;;;18.00;99.90;;;;;;5128251;27;20451;-37
2021/09/09 00:59:10;;;;;;;14.27;12.57;;;18.00;99.90;;;;;;5128759;27;20425;-38
2021/09/09 01:01:36;;;;;;;13.07;11.80;;;18.00;99.90;;;;;;5128709;27;20313;-39
2021/09/09 01:04:01;;;;;;;13.90;12.50;;;18.00;99.90;;;;;;5099253;27;20191;-40
2021/09/09 01:06:27;;;;;;;14.73;12.10;;;18.00;99.90;;;;;;5123369;27;20744;-37
2021/09/09 01:08:53;;;;;;;13.50;12.20;;;18.00;99.90;;;;;;5128530;27;20280;-37
2021/09/09 01:11:18;;;;;;;14.20;12.70;;;18.00;99.90;;;;;;5128405;27;20194;-37
2021/09/09 01:13:51;;;;;;;13.67;12.37;;;18.00;99.90;;;;;;5128147;27;20187;-37
2021/09/09 01:16:18;;;;;;;12.60;11.40;;;17.80;99.90;;;;;;5107971;28;20184;-38
2021/09/09 01:18:43;;;;;;;13.13;11.87;;;17.80;99.90;;;;;;5092230;27;20468;-37
2021/09/09 01:21:10;;;;;;;13.83;12.50;;;17.70;99.90;;;;;;5128252;27;20981;-39
2021/09/09 01:23:36;;;;;;;13.27;11.97;;;17.60;99.90;;;;;;5127982;27;20182;-39
2021/09/09 01:26:03;;;;;;;13.10;11.80;;;17.60;99.90;;;;;;5127847;27;20495;-38
2021/09/09 01:28:29;;;;;;;12.27;11.13;;;17.50;99.90;;;;;;5128313;27;20468;-40
2021/09/09 01:30:55;;;;;;;13.77;12.37;;;17.50;99.90;;;;;;5128025;27;20447;-40
2021/09/09 01:33:20;;;;;;;13.87;12.57;;;17.40;99.90;;;;;;5119049;27;20614;-38
2021/09/09 01:35:47;;;;;;;15.50;12.87;;;17.30;99.90;;;;;;5127686;27;20601;-38
2021/09/09 01:38:23;;;;;;;14.30;12.90;;;17.30;99.90;;;;;;5127616;27;20578;-38
2021/09/09 01:40:49;;;;;;;13.33;12.00;;;17.30;99.90;;;;;;5127151;27;20428;-37
2021/09/09 01:43:15;;;;;;;14.07;12.20;;;17.30;99.90;;;;;;5127995;27;20464;-38
2021/09/09 01:45:41;;;;;;;14.00;12.50;;;17.30;99.90;;;;;;5127847;27;20448;-39
2021/09/09 01:48:07;;;;;;;13.07;11.87;;;17.20;99.90;;;;;;5121417;27;20233;-42
2021/09/09 01:50:33;;;;;;;13.90;12.50;;;17.20;99.90;;;;;;5117500;27;20198;-38
2021/09/09 01:52:59;;;;;;;13.33;12.03;;;17.00;99.90;;;;;;5127067;27;20417;-37
2021/09/09 01:55:24;;;;;;;13.57;12.13;;;17.00;99.90;;;;;;5127894;27;20333;-41
2021/09/09 01:57:50;;;;;;;13.10;11.90;;;17.10;99.90;;;;;;5127549;27;20195;-38
2021/09/09 02:00:16;;;;;;;13.00;11.80;;;17.00;99.90;;;;;;5127785;27;20191;-39
2021/09/09 02:02:42;;;;;;;15.07;13.57;;;17.00;99.90;;;;;;5124837;27;20302;-37
2021/09/09 02:05:09;;;;;;;14.07;12.67;;;17.00;99.90;;;;;;5116547;27;20186;-39
2021/09/09 02:07:34;;;;;;;15.17;13.57;;;17.00;99.90;;;;;;5126549;27;20508;-38
2021/09/09 02:10:00;;;;;;;13.63;12.23;;;17.00;99.90;;;;;;5127459;27;20487;-42
2021/09/09 02:12:26;;;;;;;15.53;12.73;;;17.00;99.90;;;;;;5126818;27;20251;-38
2021/09/09 02:14:52;;;;;;;14.20;12.87;;;17.10;99.90;;;;;;5119307;27;20186;-37
2021/09/09 02:17:18;;;;;;;14.20;12.73;;;17.20;99.90;;;;;;5104895;28;20421;-38
2021/09/09 02:19:43;;;;;;;14.37;12.90;;;17.10;99.90;;;;;;5116699;27;20198;-37
2021/09/09 02:22:09;;;;;;;13.73;12.43;;;17.00;99.90;;;;;;5119614;27;20419;-39
2021/09/09 02:24:36;;;;;;;13.73;12.33;;;17.00;99.90;;;;;;5106958;28;20199;-38
2021/09/09 02:27:01;;;;;;;14.90;13.40;;;16.90;99.90;;;;;;5113464;27;20222;-38
2021/09/09 02:29:27;;;;;;;13.80;12.50;;;16.80;99.90;;;;;;5127136;27;20496;-39
2021/09/09 02:31:52;;;;;;;14.20;12.90;;;16.80;99.90;;;;;;5126502;27;20194;-38
2021/09/09 02:34:18;;;;;;;14.47;13.00;;;16.90;99.90;;;;;;5116651;27;20741;-41
2021/09/09 02:36:44;;;;;;;16.20;13.77;;;16.80;99.90;;;;;;5124054;27;20251;-38
2021/09/09 02:39:09;;;;;;;15.17;13.57;;;16.80;99.90;;;;;;5124988;27;20592;-38
2021/09/09 02:41:35;;;;;;;15.83;13.83;;;16.90;99.90;;;;;;5126676;27;20890;-38
2021/09/09 02:44:01;;;;;;;14.43;12.70;;;16.80;99.90;;;;;;5126898;27;20578;-40
2021/09/09 02:46:26;;;;;;;14.87;13.37;;;16.80;99.90;;;;;;5126818;27;20198;-39
2021/09/09 02:48:52;;;;;;;15.77;13.50;;;16.80;99.90;;;;;;5121736;27;20554;-38
2021/09/09 02:51:18;;;;;;;15.20;13.63;;;16.90;99.90;;;;;;5122146;27;20187;-38
2021/09/09 02:53:43;;;;;;;14.17;12.77;;;16.90;99.90;;;;;;5126288;27;20179;-39
2021/09/09 02:56:09;;;;;;;15.13;13.03;;;17.00;99.90;;;;;;5126643;27;20225;-38
2021/09/09 02:58:35;;;;;;;14.07;12.57;;;17.00;99.90;;;;;;5126578;28;20705;-38
2021/09/09 03:01:01;;;;;;;15.13;13.53;;;17.00;99.90;;;;;;5126728;28;20420;-39
2021/09/09 03:03:26;;;;;;;14.90;13.40;;;17.10;99.90;;;;;;5122245;28;20218;-37
2021/09/09 03:05:52;;;;;;;14.30;12.73;;;17.00;99.90;;;;;;5120705;28;20190;-37
2021/09/09 03:08:17;;;;;;;15.20;13.30;;;17.10;99.90;;;;;;5107835;28;20211;-41
2021/09/09 03:10:43;;;;;;;14.53;13.03;;;17.10;99.90;;;;;;5127054;28;20521;-38
2021/09/09 03:13:09;;;;;;;14.10;12.70;;;17.10;99.90;;;;;;5126312;28;20337;-38
2021/09/09 03:15:35;;;;;;;14.10;12.80;;;17.10;99.90;;;;;;5111632;28;20198;-38
2021/09/09 03:18:00;;;;;;;14.27;12.77;;;17.10;99.90;;;;;;5104516;28;20544;-37
2021/09/09 03:20:26;;;;;;;14.23;12.73;;;17.10;99.90;;;;;;5118477;28;20191;-40
2021/09/09 03:22:51;;;;;;;15.10;13.60;;;17.10;99.90;;;;;;5123287;28;20179;-39
2021/09/09 03:25:17;;;;;;;14.83;13.30;;;17.10;99.90;;;;;;5126525;28;20203;-39
2021/09/09 03:27:43;;;;;;;13.97;12.33;;;17.10;99.90;;;;;;5126344;28;20952;-43
2021/09/09 03:30:09;;;;;;;14.20;12.53;;;17.10;99.90;;;;;;5126293;28;20210;-37
2021/09/09 03:32:35;;;;;;;13.37;12.07;;;17.10;99.90;;;;;;5126364;28;20183;-37
2021/09/09 03:35:00;;;;;;;13.13;11.80;;;17.10;99.90;;;;;;5115634;28;20431;-37
2021/09/09 03:37:27;;;;;;;14.17;12.70;;;17.20;99.90;;;;;;5118443;28;20279;-39
2021/09/09 03:39:53;;;;;;;14.63;12.97;;;17.10;99.90;;;;;;5126292;28;20179;-39
2021/09/09 03:42:18;;;;;;;14.83;13.27;;;17.10;99.90;;;;;;5107710;28;20423;-39
2021/09/09 03:44:47;;;;;;;14.57;13.17;;;17.00;99.90;;;;;;5126862;28;20437;-38
2021/09/09 03:47:13;;;;;;;14.80;13.20;;;17.00;99.90;;;;;;5126008;28;20198;-38
2021/09/09 03:49:38;;;;;;;14.67;13.17;;;17.00;99.90;;;;;;5116607;28;20461;-41
2021/09/09 03:52:04;;;;;;;14.80;13.30;;;17.00;99.90;;;;;;5125781;28;20668;-37
2021/09/09 03:54:30;;;;;;;14.53;13.03;;;17.00;99.90;;;;;;5126254;28;20198;-38
2021/09/09 03:56:55;;;;;;;16.63;13.73;;;17.00;99.90;;;;;;5125818;28;20200;-38
2021/09/09 03:59:21;;;;;;;15.17;13.57;;;17.00;99.90;;;;;;5126454;28;20444;-39
2021/09/09 04:01:46;;;;;;;15.33;13.73;;;17.00;99.90;;;;;;5125819;28;20183;-39
2021/09/09 04:04:12;;;;;;;14.70;13.20;;;17.00;99.90;;;;;;5102425;27;20264;-37
2021/09/09 04:06:38;;;;;;;14.70;13.33;;;17.10;99.90;;;;;;5120803;27;20266;-38
2021/09/09 04:09:04;;;;;;;14.37;12.87;;;17.00;99.90;;;;;;5129855;27;20676;-39
2021/09/09 04:11:30;;;;;;;14.10;12.60;;;17.00;99.90;;;;;;5129322;27;20654;-39
2021/09/09 04:13:55;;;;;;;15.83;12.80;;;17.00;99.90;;;;;;5129026;27;20187;-39
2021/09/09 04:16:21;;;;;;;14.17;12.80;;;17.00;99.90;;;;;;5108214;28;20187;-38
2021/09/09 04:18:47;;;;;;;15.90;12.83;;;16.90;99.90;;;;;;5106460;27;20409;-38
2021/09/09 04:21:12;;;;;;;14.17;12.60;;;17.00;99.90;;;;;;5118389;27;20184;-39
2021/09/09 04:23:38;;;;;;;13.57;12.23;;;17.00;99.90;;;;;;5128863;27;20352;-38
2021/09/09 04:26:04;;;;;;;13.67;12.00;;;17.00;99.90;;;;;;5129440;27;20290;-38
2021/09/09 04:28:30;;;;;;;17.40;13.30;;;17.00;99.90;;;;;;5129244;27;21041;-38
2021/09/09 04:30:55;;;;;;;14.40;13.10;;;17.00;99.90;;;;;;5129663;27;20206;-42
2021/09/09 04:33:21;;;;;;;14.63;12.97;;;17.00;99.90;;;;;;5129024;27;20269;-40
2021/09/09 04:35:46;;;;;;;15.20;13.50;;;17.00;99.90;;;;;;5118189;27;20235;-39
2021/09/09 04:38:13;;;;;;;14.30;12.80;;;17.00;99.90;;;;;;5129186;27;20520;-38
2021/09/09 04:40:39;;;;;;;14.20;12.70;;;17.00;99.90;;;;;;5129437;27;20183;-38
2021/09/09 04:43:06;;;;;;;12.97;11.67;;;17.00;99.90;;;;;;5128579;27;20431;-38
2021/09/09 04:45:32;;;;;;;13.73;11.57;;;17.10;99.90;;;;;;5129166;27;20623;-37
2021/09/09 04:47:58;;;;;;;12.80;11.37;;;17.00;99.90;;;;;;5128382;27;20427;-38
2021/09/09 04:50:24;;;;;;;11.30;10.10;;;17.00;99.90;;;;;;5117097;27;20464;-37
2021/09/09 04:52:50;;;;;;;12.63;10.67;;;17.00;99.90;;;;;;5127510;27;20898;-39
2021/09/09 04:55:16;;;;;;;12.80;11.50;;;17.10;99.90;;;;;;5128400;27;20425;-37
2021/09/09 04:57:42;;;;;;;11.93;10.63;;;17.10;99.90;;;;;;5128646;27;20528;-38
2021/09/09 05:00:08;;;;;;;12.40;11.20;;;17.10;99.90;;;;;;5129102;27;20222;-38
2021/09/09 05:02:33;;;;;;;13.33;12.03;;;17.10;99.90;;;;;;5128609;27;20371;-38
2021/09/09 05:04:59;;;;;;;12.37;11.07;;;17.10;99.90;;;;;;5123150;27;20454;-37
2021/09/09 05:07:25;;;;;;;12.90;11.63;;;17.10;99.90;;;;;;5121811;27;20203;-38
2021/09/09 05:09:51;;;;;;;11.33;10.23;;;17.20;99.90;;;;;;5123425;27;20566;-38
2021/09/09 05:12:16;;;;;;;11.60;10.40;;;17.10;99.90;;;;;;5129130;27;20507;-38
2021/09/09 05:14:42;;;;;;;11.83;10.63;;;17.20;99.90;;;;;;5121441;27;20195;-38
2021/09/09 05:17:08;;;;;;;11.27;10.17;;;17.10;99.90;;;;;;5105189;28;20184;-37
2021/09/09 05:19:33;;;;;;;12.77;11.47;;;17.20;99.90;;;;;;5107605;28;20184;-37
2021/09/09 05:21:59;;;;;;;12.40;11.20;;;17.20;99.90;;;;;;5121348;27;20348;-38
2021/09/09 05:24:25;;;;;;;11.33;10.17;;;17.30;99.90;;;;;;5128384;27;20575;-37
2021/09/09 05:26:50;;;;;;;11.60;10.47;;;17.30;99.90;;;;;;5128024;27;20269;-37
2021/09/09 05:29:16;;;;;;;13.50;12.00;;;17.30;99.90;;;;;;5109848;27;20215;-37
2021/09/09 05:31:41;;;;;;;11.63;10.43;;;17.30;99.90;;;;;;5127507;27;20691;-37
2021/09/09 05:34:07;;;;;;;12.20;10.50;;;17.30;99.90;;;;;;5126506;27;20263;-37
2021/09/09 05:36:33;;;;;;;11.67;10.47;;;17.40;99.90;;;;;;5118549;27;20179;-37
2021/09/09 05:38:58;;;;;;;12.23;10.20;;;17.40;99.90;;;;;;5128518;27;20664;-37
2021/09/09 05:41:24;;;;;;;11.40;10.30;;;17.40;99.90;;;;;;5126396;27;20721;-37
2021/09/09 05:43:50;;;;;;;12.30;11.10;;;17.50;99.90;;;;;;5126759;27;20230;-37
2021/09/09 05:46:15;;;;;;;12.07;10.87;;;17.40;99.90;;;;;;5126584;27;20685;-37
2021/09/09 05:48:41;;;;;;;11.77;10.07;;;17.50;99.90;;;;;;5127522;27;20577;-37
2021/09/09 05:51:07;;;;;;;11.90;10.80;;;17.50;99.90;;;;;;5117174;27;20187;-38
2021/09/09 05:53:33;;;;;;;11.73;9.60;;;17.50;99.90;;;;;;5122985;27;20574;-37
2021/09/09 05:55:59;;;;;;;11.13;9.67;;;17.60;99.90;;;;;;5127687;27;20433;-37
2021/09/09 05:58:24;;;;;;;11.60;9.90;;;17.70;99.90;;;;;;5127612;27;20429;-37
2021/09/09 06:00:50;;;;;;;11.47;10.27;;;17.70;99.90;;;;;;5127546;27;20221;-37
2021/09/09 06:03:16;;;;;;;11.07;9.90;;;17.80;99.90;;;;;;5127242;27;20199;-37
2021/09/09 06:05:42;;;;;;;11.80;10.53;;;17.90;99.90;;;;;;5116727;27;20278;-37
2021/09/09 06:08:08;;;;;;;13.53;10.10;;;18.00;99.90;;;;;;5121181;27;20828;-37
2021/09/09 06:10:33;;;;;;;11.13;9.70;;;18.10;99.90;;;;;;5125312;27;20274;-37
2021/09/09 06:12:59;;;;;;;13.17;10.80;;;18.20;99.90;;;;;;5126825;27;20293;-36
2021/09/09 06:15:25;;;;;;;10.43;9.33;;;18.30;99.90;;;;;;5096881;28;20184;-37
2021/09/09 06:17:50;;;;;;;9.70;8.80;;;18.40;99.90;;;;;;5105303;28;20183;-37
2021/09/09 06:20:17;;;;;;;11.20;9.73;;;18.40;99.90;;;;;;5107632;27;20219;-38
2021/09/09 06:22:43;;;;;;;15.20;10.73;;;18.60;99.90;;;;;;5125793;27;20202;-39
2021/09/09 06:25:10;;;;;;;11.67;9.90;;;18.60;99.90;;;;;;5127398;27;20428;-37
2021/09/09 06:27:37;;;;;;;11.50;10.00;;;18.80;99.90;;;;;;5107625;27;20440;-37
2021/09/09 06:30:04;;;;;;;11.77;9.33;;;18.80;99.90;;;;;;5087825;28;20454;-37
2021/09/09 06:32:30;;;;;;;10.40;9.00;;;19.00;99.90;;;;;;5125739;27;20839;-38
2021/09/09 06:34:56;;;;;;;13.03;10.03;;;19.10;99.90;;;;;;5103339;28;20434;-37
2021/09/09 06:37:22;;;;;;;10.37;9.37;;;19.20;99.90;;;;;;5118441;27;20441;-38
2021/09/09 06:39:48;;;;;;;10.80;9.80;;;19.30;99.90;;;;;;5126827;27;20186;-38
2021/09/09 06:42:14;;;;;;;10.50;9.20;;;19.30;99.90;;;;;;5108238;27;20191;-37
2021/09/09 06:44:40;;;;;;;10.03;9.03;;;19.40;99.90;;;;;;5108102;27;20428;-37
2021/09/09 06:47:06;;;;;;;13.40;9.73;;;19.50;99.90;;;;;;5087710;28;20199;-37
2021/09/09 06:49:32;;;;;;;9.87;8.90;;;19.50;99.90;;;;;;5081909;28;20471;-37
2021/09/09 06:51:58;;;;;;;11.57;9.73;;;19.60;99.90;;;;;;5103282;27;20448;-39
2021/09/09 06:54:24;;;;;;;12.33;9.27;;;19.70;99.90;;;;;;5071591;27;20927;-37
2021/09/09 06:56:50;;;;;;;12.90;9.67;;;19.80;99.90;;;;;;5087726;28;20183;-37
2021/09/09 06:59:15;;;;;;;9.37;8.47;;;19.90;99.90;;;;;;5120505;27;20842;-37
2021/09/09 07:01:41;;;;;;;11.80;8.90;;;20.00;99.90;;;;;;5126393;27;20669;-37
2021/09/09 07:04:06;;;;;;;10.10;8.90;;;20.10;99.90;;;;;;5127200;27;20664;-37
2021/09/09 07:06:32;;;;;;;15.87;9.30;;;20.20;99.90;;;;;;5099844;28;20190;-37
2021/09/09 07:08:58;;;;;;;10.43;8.13;;;20.20;99.90;;;;;;5125846;28;20696;-37
2021/09/09 07:11:23;;;;;;;9.70;8.70;;;20.30;99.90;;;;;;5106217;28;20751;-37
2021/09/09 07:13:49;;;;;;;10.40;9.37;;;20.40;99.90;;;;;;5118812;28;20552;-37
2021/09/09 07:16:15;;;;;;;10.57;8.83;;;20.30;99.90;;;;;;5126361;28;20187;-37
2021/09/09 07:18:40;;;;;;;9.63;8.63;;;20.40;99.90;;;;;;5106998;28;20199;-38
2021/09/09 07:21:07;;;;;;;10.63;9.07;;;20.40;99.90;;;;;;5117594;28;20211;-37
2021/09/09 07:23:33;;;;;;;9.40;8.60;;;20.50;99.90;;;;;;5123056;28;20214;-37
2021/09/09 07:25:59;;;;;;;9.90;8.30;;;20.50;99.90;;;;;;5123338;28;20958;-37
2021/09/09 07:28:25;;;;;;;10.80;9.30;;;20.60;99.90;;;;;;5126245;28;20226;-37
2021/09/09 07:30:51;;;;;;;9.10;8.20;;;20.70;99.90;;;;;;5126461;28;20220;-37
2021/09/09 07:33:16;;;;;;;12.00;8.97;;;20.70;99.90;;;;;;5125861;28;20475;-36
2021/09/09 07:35:42;;;;;;;10.33;9.23;;;20.70;99.90;;;;;;5120992;28;20191;-37
2021/09/09 07:38:08;;;;;;;9.13;8.30;;;20.80;99.90;;;;;;5121151;27;20567;-37
2021/09/09 07:40:34;;;;;;;10.20;9.20;;;20.80;99.90;;;;;;5129949;27;20582;-37
2021/09/09 07:43:00;;;;;;;10.00;9.10;;;20.90;99.90;;;;;;5129740;27;20206;-37
2021/09/09 07:45:28;;;;;;;11.33;8.90;;;21.00;99.90;;;;;;5130437;27;20240;-37
2021/09/09 07:47:53;;;;;;;10.00;8.67;;;21.00;99.90;;;;;;5129934;27;20415;-37
2021/09/09 07:50:19;;;;;;;10.17;9.07;;;21.10;99.90;;;;;;5125722;27;20473;-37
2021/09/09 07:52:45;;;;;;;10.60;8.73;;;21.20;99.90;;;;;;5126611;27;20189;-37
2021/09/09 07:55:11;;;;;;;11.67;8.70;;;21.20;99.90;;;;;;5129857;27;20702;-37
2021/09/09 07:57:37;;;;;;;9.30;8.40;;;21.30;99.90;;;;;;5129803;27;20194;-37
2021/09/09 08:00:06;;;;;;;10.53;8.87;;;21.30;99.90;;;;;;5130378;27;20879;-37
2021/09/09 08:02:32;;;;;;;9.20;8.30;;;21.40;99.90;;;;;;5129781;27;20424;-37
2021/09/09 08:04:58;;;;;;;9.23;8.30;;;21.50;99.90;;;;;;5110993;27;20440;-38
2021/09/09 08:07:23;;;;;;;9.07;8.20;;;21.50;99.90;;;;;;5119494;27;20195;-37
2021/09/09 08:09:49;;;;;;;11.20;9.10;;;21.60;99.90;;;;;;5102619;27;20214;-37
2021/09/09 08:12:15;;;;;;;8.83;8.03;;;21.70;99.90;;;;;;5129614;27;20259;-37
2021/09/09 08:14:40;;;;;;;10.00;9.00;;;21.80;99.90;;;;;;5123385;27;20180;-37
2021/09/09 08:17:06;;;;;;;8.87;8.07;;;21.90;99.90;;;;;;5109299;28;20196;-37
2021/09/09 08:19:31;;;;;;;10.40;9.30;;;22.00;99.90;;;;;;5109361;28;20255;-37
2021/09/09 08:21:57;;;;;;;9.40;8.50;;;22.00;99.90;;;;;;5114475;27;20549;-37
2021/09/09 08:24:23;;;;;;;9.90;8.63;;;22.10;99.90;;;;;;5124275;27;20324;-37
2021/09/09 08:26:48;;;;;;;8.93;8.10;;;22.10;99.90;;;;;;5129016;27;20555;-37
2021/09/09 08:29:14;;;;;;;9.13;8.20;;;22.20;99.90;;;;;;5129651;27;20715;-37
2021/09/09 08:31:40;;;;;;;9.37;8.37;;;22.20;99.90;;;;;;5128901;27;20574;-37
2021/09/09 08:34:05;;;;;;;9.33;8.43;;;22.30;99.90;;;;;;5115996;27;20637;-37
2021/09/09 08:36:31;;;;;;;9.50;8.60;;;22.30;99.90;;;;;;5118026;27;20199;-37
2021/09/09 08:38:57;;;;;;;10.30;9.30;;;22.30;99.90;;;;;;5129168;27;20183;-38
2021/09/09 08:41:23;;;;;;;9.70;8.90;;;22.40;99.90;;;;;;5128754;27;20347;-37
2021/09/09 08:43:48;;;;;;;10.03;9.03;;;22.40;99.90;;;;;;5129316;27;20195;-37
2021/09/09 08:46:16;;;;;;;10.60;9.60;;;22.40;99.90;;;;;;5129138;27;20278;-37
2021/09/09 08:48:44;;;;;;;11.30;9.40;;;22.40;99.90;;;;;;5128935;27;20590;-37
2021/09/09 08:51:10;;;;;;;10.30;9.20;;;22.50;99.90;;;;;;5122318;27;20460;-37
2021/09/09 08:53:36;;;;;;;9.87;8.97;;;22.50;99.90;;;;;;5109430;27;20425;-37
2021/09/09 08:56:03;;;;;;;10.43;9.30;;;22.60;99.90;;;;;;5110505;27;20590;-38
2021/09/09 08:58:28;;;;;;;9.20;8.27;;;22.60;99.90;;;;;;5129231;27;20516;-37
2021/09/09 09:01:09;;;;;;;10.63;9.60;;;22.70;99.90;;;;;;5129106;27;20429;-37
2021/09/09 09:06:57;;;;;;;9.43;8.00;;;22.80;99.90;;;;;;5128873;27;20468;-37
2021/09/09 09:09:24;;;;;;;8.70;7.90;;;22.90;99.90;;;;;;5122485;27;21092;-37
2021/09/09 09:11:51;;;;;;;9.37;8.47;;;22.90;99.90;;;;;;5119992;27;20178;-37
2021/09/09 09:14:21;;;;;;;8.77;7.97;;;23.00;99.90;;;;;;5128597;27;20417;-38
2021/09/09 09:16:52;;;;;;;8.67;7.77;;;23.10;99.90;;;;;;5126598;27;21419;-37
2021/09/09 09:19:27;;;;;;;9.23;8.33;;;23.20;99.90;;;;;;5128757;27;20433;-37
2021/09/09 09:22:09;;;;;;;9.30;8.40;;;23.30;99.90;;;;;;5128383;27;20960;-37
2021/09/09 09:24:49;;;;;;;9.27;8.33;;;23.40;99.90;;;;;;5119424;27;20432;-37
2021/09/09 09:27:18;;;;;;;9.80;8.20;;;23.40;99.90;;;;;;5125061;27;20405;-37
2021/09/09 09:30:02;;;;;;;10.07;8.40;;;23.50;99.90;;;;;;5128565;27;20456;-37
2021/09/09 09:32:28;;;;;;;9.50;8.50;;;23.60;99.90;;;;;;5128281;27;21127;-38
2021/09/09 09:35:15;;;;;;;10.23;7.97;;;23.70;99.90;;;;;;5128691;27;20577;-37
2021/09/09 09:37:52;;;;;;;8.90;7.83;;;23.80;99.90;;;;;;5128028;27;20175;-37
2021/09/09 09:40:24;;;;;;;9.53;8.20;;;23.80;99.90;;;;;;5120394;27;20961;-38
2021/09/09 09:42:49;;;;;;;8.57;7.73;;;23.90;99.90;;;;;;5124750;27;20423;-38
2021/09/09 09:45:15;;;;;;;9.03;8.10;;;24.00;99.90;;;;;;5108834;27;20422;-37
2021/09/09 09:47:41;;;;;;;9.30;8.40;;;24.00;99.90;;;;;;5112174;27;20198;-37
2021/09/09 09:50:22;;;;;;;9.20;8.40;;;24.00;99.90;;;;;;5127654;27;20555;-37
2021/09/09 09:52:48;;;;;;;9.63;8.00;;;24.20;99.90;;;;;;5127502;27;20435;-37
2021/09/09 09:55:14;;;;;;;11.40;7.77;;;24.30;99.90;;;;;;5118214;27;20509;-37
2021/09/09 09:57:56;;;;;;;9.10;8.10;;;24.40;99.90;;;;;;5125411;27;20417;-37
2021/09/09 10:00:23;;;;;;;8.87;8.10;;;24.50;99.90;;;;;;5127027;27;20437;-37
2021/09/09 10:02:49;;;;;;;8.47;7.67;;;24.60;99.90;;;;;;5126816;27;20429;-37
2021/09/09 10:05:15;;;;;;;9.07;7.53;;;24.70;99.90;;;;;;5128023;27;20417;-37
2021/09/09 10:07:41;;;;;;;9.43;8.53;;;24.80;99.90;;;;;;5127319;27;20540;-37
2021/09/09 10:10:07;;;;;;;8.77;7.97;;;24.90;99.90;;;;;;5121062;27;20633;-37
2021/09/09 10:12:33;;;;;;;9.10;8.30;;;25.00;99.90;;;;;;5124817;27;20540;-37
2021/09/09 10:15:04;;;;;;;8.77;7.97;;;25.10;99.90;;;;;;5127362;27;20480;-37
2021/09/09 10:17:31;;;;;;;9.90;7.57;;;25.20;99.90;;;;;;5125175;27;20428;-37
2021/09/09 10:20:33;;;;;;;8.43;7.77;;;25.20;99.90;;;;;;5127599;27;20698;-37
2021/09/09 10:23:25;;;;;;;8.30;7.50;;;25.40;99.90;;;;;;5127065;27;20408;-37
2021/09/09 10:25:54;;;;;;;8.57;7.77;;;25.40;99.90;;;;;;5115151;27;20424;-37
2021/09/09 10:28:40;;;;;;;9.30;8.50;;;25.40;99.90;;;;;;5127041;27;20421;-37
2021/09/09 10:31:07;;;;;;;9.17;7.30;;;25.40;99.90;;;;;;5114577;27;20426;-37
2021/09/09 10:33:34;;;;;;;10.13;7.70;;;25.50;99.90;;;;;;5119938;27;20469;-37
2021/09/09 10:36:00;;;;;;;8.77;8.00;;;25.50;99.90;;;;;;5126902;27;20493;-37
2021/09/09 10:38:32;;;;;;;9.13;8.23;;;25.60;99.90;;;;;;5127318;27;20436;-37
2021/09/09 10:41:00;;;;;;;9.63;8.60;;;25.70;99.90;;;;;;5119678;27;20464;-37
2021/09/09 10:43:26;;;;;;;9.30;8.30;;;25.80;99.90;;;;;;5126361;27;20493;-37
2021/09/09 10:46:03;;;;;;;8.90;7.73;;;25.90;99.90;;;;;;5126743;27;20922;-37
2021/09/09 10:48:30;;;;;;;8.83;8.03;;;25.90;99.90;;;;;;5126623;27;20607;-37
2021/09/09 10:51:14;;;;;;;9.53;8.73;;;26.00;99.90;;;;;;5127283;27;20431;-37
2021/09/09 10:53:43;;;;;;;8.53;7.57;;;26.00;99.90;;;;;;5126366;27;20422;-37
2021/09/09 10:56:18;;;;;;;8.77;7.97;;;26.20;99.90;;;;;;5119566;27;20455;-38
2021/09/09 10:58:44;;;;;;;8.43;7.70;;;26.20;99.90;;;;;;5126569;27;20507;-37
2021/09/09 11:01:11;;;;;;;9.43;8.60;;;26.30;99.90;;;;;;5127184;27;20519;-38
2021/09/09 11:03:43;;;;;;;8.60;7.90;;;26.30;99.90;;;;;;5126412;27;20507;-37
2021/09/09 11:06:17;;;;;;;9.40;8.50;;;26.40;99.90;;;;;;5126514;27;20784;-37
2021/09/09 11:08:44;;;;;;;9.50;8.67;;;26.40;99.90;;;;;;5127164;28;20468;-37
2021/09/09 11:11:15;;;;;;;9.60;8.67;;;26.40;99.90;;;;;;5118774;28;20421;-37
2021/09/09 11:13:41;;;;;;;9.23;8.33;;;26.40;99.90;;;;;;5127550;27;20417;-39
2021/09/09 11:16:21;;;;;;;11.10;9.43;;;26.50;99.90;;;;;;5128072;27;20436;-37
2021/09/09 11:18:47;;;;;;;10.00;8.57;;;26.50;99.90;;;;;;5128875;27;20428;-37
2021/09/09 11:21:20;;;;;;;9.80;8.90;;;26.50;99.90;;;;;;5130982;27;20711;-37
2021/09/09 11:23:47;;;;;;;10.53;9.43;;;26.50;99.90;;;;;;5130610;27;20420;-37
2021/09/09 11:26:19;;;;;;;10.70;8.90;;;26.60;99.90;;;;;;5121231;27;20452;-38
2021/09/09 11:28:47;;;;;;;9.80;8.90;;;26.70;99.90;;;;;;5127760;27;20836;-37
2021/09/09 11:31:19;;;;;;;11.23;8.23;;;26.70;99.90;;;;;;5108923;27;20470;-38
2021/09/09 11:34:04;;;;;;;9.60;8.70;;;26.70;99.90;;;;;;5130115;27;20755;-38
2021/09/09 11:36:41;;;;;;;10.70;9.70;;;26.80;99.90;;;;;;5130782;27;20795;-37
2021/09/09 11:39:10;;;;;;;11.57;8.83;;;26.80;99.90;;;;;;5130780;27;20518;-37
2021/09/09 11:41:37;;;;;;;10.70;9.40;;;26.80;99.90;;;;;;5120353;27;20441;-37
2021/09/09 11:44:05;;;;;;;10.47;9.57;;;26.90;99.90;;;;;;5130632;27;20409;-37
2021/09/09 11:46:35;;;;;;;10.10;9.20;;;26.90;99.90;;;;;;5130168;27;20477;-37
2021/09/09 11:49:02;;;;;;;11.00;9.30;;;26.90;99.90;;;;;;5130244;27;20502;-37
2021/09/09 11:51:40;;;;;;;9.77;8.73;;;26.90;99.90;;;;;;5130151;27;20489;-37
2021/09/09 11:54:18;;;;;;;10.40;9.30;;;26.90;99.90;;;;;;5130317;27;20423;-37
2021/09/09 11:56:44;;;;;;;9.70;8.90;;;26.90;99.90;;;;;;5121386;27;20441;-37
2021/09/09 11:59:18;;;;;;;11.93;9.23;;;26.90;99.90;;;;;;5129833;27;20412;-37
2021/09/09 12:01:47;;;;;;;10.23;9.33;;;26.90;99.90;;;;;;5128742;27;20544;-37
2021/09/09 12:04:13;;;;;;;10.27;9.37;;;26.90;99.90;;;;;;5130540;27;20452;-37
2021/09/09 12:06:40;;;;;;;10.40;9.40;;;26.90;99.90;;;;;;5129804;27;20436;-38
2021/09/09 12:09:05;;;;;;;11.17;8.50;;;26.90;99.90;;;;;;5130024;27;20483;-37
2021/09/09 12:11:33;;;;;;;10.60;9.60;;;27.00;99.90;;;;;;5121081;27;20426;-37
2021/09/09 12:14:15;;;;;;;10.43;9.43;;;27.10;99.90;;;;;;5129659;27;20183;-37
2021/09/09 12:16:41;;;;;;;12.10;9.00;;;27.10;99.90;;;;;;5128381;27;20717;-37
2021/09/09 12:19:07;;;;;;;10.17;9.17;;;27.10;99.90;;;;;;5129637;27;21148;-37
2021/09/09 12:21:34;;;;;;;10.03;9.03;;;27.10;99.90;;;;;;5129347;27;20186;-37
2021/09/09 12:24:10;;;;;;;9.47;8.57;;;27.00;99.90;;;;;;5129350;27;20467;-37
2021/09/09 12:26:38;;;;;;;10.13;9.23;;;27.00;99.90;;;;;;5118751;27;20429;-37
2021/09/09 12:29:18;;;;;;;11.37;10.37;;;27.00;99.90;;;;;;5127365;27;20467;-37
2021/09/09 12:31:44;;;;;;;10.63;9.63;;;27.00;99.90;;;;;;5129005;27;20423;-37
2021/09/09 12:34:15;;;;;;;10.33;9.43;;;27.10;99.90;;;;;;5129544;27;20404;-37
2021/09/09 12:36:49;;;;;;;9.90;9.10;;;27.10;99.90;;;;;;5128818;27;20808;-38
2021/09/09 12:39:20;;;;;;;10.90;9.80;;;27.10;99.90;;;;;;5129655;27;20427;-38